sensor_id;sensor_type;location;lat;lon;timestamp;P1;P2;P0
74436;PMS7003;62868;52.360;30.424;2023-03-03T00:03:46;0.3;0;0
74436;PMS7003;62868;52.360;30.424;2023-03-03T00:09:00;0.7;0;0
74436;PMS7003;62868;52.360;30.424;2023-03-03T00:13:34;1;1;0
74436;PMS7003;62868;52.360;30.424;2023-03-03T00:18:33;1.3;0.7;0.3
74436;PMS7003;62868;52.360;30.424;2023-03-03T00:24:16;1.3;0.3;0
74436;PMS7003;62868;52.360;30.424;2023-03-03T00:28:23;0.7;0.3;0
74436;PMS7003;62868;52.360;30.424;2023-03-03T00:34:18;1;0.5;0
74436;PMS7003;62868;52.360;30.424;2023-03-03T00:38:22;1.3;0.7;0.3
74436;PMS7003;62868;52.360;30.424;2023-03-03T00:43:44;1;0.3;0
74436;PMS7003;62868;52.360;30.424;2023-03-03T00:49:15;0.3;0.3;0
74436;PMS7003;62868;52.360;30.424;2023-03-03T00:53:46;0;0;0
74436;PMS7003;62868;52.360;30.424;2023-03-03T00:58:48;2;0.7;0
74436;PMS7003;62868;52.360;30.424;2023-03-03T01:03:32;1;0.7;0.3
74436;PMS7003;62868;52.360;30.424;2023-03-03T01:08:46;0.7;0.3;0
74436;PMS7003;62868;52.360;30.424;2023-03-03T01:14:10;1.3;1;0.5
74436;PMS7003;62868;52.360;30.424;2023-03-03T01:18:33;1;0.3;0.3
74436;PMS7003;62868;52.360;30.424;2023-03-03T01:24:12;0.7;0.7;0
74436;PMS7003;62868;52.360;30.424;2023-03-03T01:28:22;1;0.3;0
74436;PMS7003;62868;52.360;30.424;2023-03-03T01:33:46;0.3;0.3;0
74436;PMS7003;62868;52.360;30.424;2023-03-03T01:39:10;0.7;0.3;0.3
74436;PMS7003;62868;52.360;30.424;2023-03-03T01:43:47;1;1;0
74436;PMS7003;62868;52.360;30.424;2023-03-03T01:49:02;0;0;0
74436;PMS7003;62868;52.360;30.424;2023-03-03T01:53:24;0.7;0.7;0
74436;PMS7003;62868;52.360;30.424;2023-03-03T01:58:35;0.7;0.7;0
74436;PMS7003;62868;52.360;30.424;2023-03-03T02:04:12;1;0.7;0
74436;PMS7003;62868;52.360;30.424;2023-03-03T02:08:24;1;0.3;0
74436;PMS7003;62868;52.360;30.424;2023-03-03T02:13:36;0.3;0;0
74436;PMS7003;62868;52.360;30.424;2023-03-03T02:18:34;0.7;0.7;0
74436;PMS7003;62868;52.360;30.424;2023-03-03T02:23:46;0.3;0.3;0
74436;PMS7003;62868;52.360;30.424;2023-03-03T02:29:12;0.5;0.3;0
74436;PMS7003;62868;52.360;30.424;2023-03-03T02:33:47;0;0;0
74436;PMS7003;62868;52.360;30.424;2023-03-03T02:38:58;0;0;0
74436;PMS7003;62868;52.360;30.424;2023-03-03T02:43:36;0.3;0;0
74436;PMS7003;62868;52.360;30.424;2023-03-03T02:48:58;1;0.3;0
74436;PMS7003;62868;52.360;30.424;2023-03-03T02:53:22;1;0.3;0
74436;PMS7003;62868;52.360;30.424;2023-03-03T02:59:12;0.7;0;0
74436;PMS7003;62868;52.360;30.424;2023-03-03T03:03:58;0.3;0;0
74436;PMS7003;62868;52.360;30.424;2023-03-03T03:08:32;0;0;0
74436;PMS7003;62868;52.360;30.424;2023-03-03T03:13:36;0.3;0.3;0
74436;PMS7003;62868;52.360;30.424;2023-03-03T03:18:22;0.3;0;0
74436;PMS7003;62868;52.360;30.424;2023-03-03T03:24:12;1;0;0
74436;PMS7003;62868;52.360;30.424;2023-03-03T03:28:58;0.3;0;0
74436;PMS7003;62868;52.360;30.424;2023-03-03T03:34:00;0.7;0.7;0
74436;PMS7003;62868;52.360;30.424;2023-03-03T03:38:56;1;0.3;0
74436;PMS7003;62868;52.360;30.424;2023-03-03T03:43:33;0.5;0;0
74436;PMS7003;62868;52.360;30.424;2023-03-03T03:49:12;0.3;0;0
74436;PMS7003;62868;52.360;30.424;2023-03-03T03:53:58;1.3;0.7;0
74436;PMS7003;62868;52.360;30.424;2023-03-03T03:58:46;0.3;0.3;0.3
74436;PMS7003;62868;52.360;30.424;2023-03-03T04:03:58;0.8;0;0
74436;PMS7003;62868;52.360;30.424;2023-03-03T04:08:22;0.7;0;0
74436;PMS7003;62868;52.360;30.424;2023-03-03T04:14:14;0.7;0.3;0
74436;PMS7003;62868;52.360;30.424;2023-03-03T04:19:00;0;0;0
74436;PMS7003;62868;52.360;30.424;2023-03-03T04:23:44;0.3;0;0
74436;PMS7003;62868;52.360;30.424;2023-03-03T04:29:00;0.3;0;0
74436;PMS7003;62868;52.360;30.424;2023-03-03T04:33:22;0;0;0
74436;PMS7003;62868;52.360;30.424;2023-03-03T04:39:14;0;0;0
74436;PMS7003;62868;52.360;30.424;2023-03-03T04:44:00;0.3;0.3;0
74436;PMS7003;62868;52.360;30.424;2023-03-03T04:48:34;0;0;0
74436;PMS7003;62868;52.360;30.424;2023-03-03T04:54:00;1;0.7;0
74436;PMS7003;62868;52.360;30.424;2023-03-03T04:58:44;0;0;0
74436;PMS7003;62868;52.360;30.424;2023-03-03T05:04:12;0;0;0
74436;PMS7003;62868;52.360;30.424;2023-03-03T05:09:00;0;0;0
74436;PMS7003;62868;52.360;30.424;2023-03-03T05:13:46;0.7;0;0
74436;PMS7003;62868;52.360;30.424;2023-03-03T05:19:00;0.3;0;0
74436;PMS7003;62868;52.360;30.424;2023-03-03T05:23:22;0.3;0;0
74436;PMS7003;62868;52.360;30.424;2023-03-03T05:29:14;0.3;0;0
74436;PMS7003;62868;52.360;30.424;2023-03-03T05:34:00;1;0;0
74436;PMS7003;62868;52.360;30.424;2023-03-03T05:38:32;0.8;0.3;0.3
74436;PMS7003;62868;52.360;30.424;2023-03-03T05:43:58;0.7;0;0
74436;PMS7003;62868;52.360;30.424;2023-03-03T05:49:12;0.7;0.3;0
74436;PMS7003;62868;52.360;30.424;2023-03-03T05:54:14;0.3;0.3;0
74436;PMS7003;62868;52.360;30.424;2023-03-03T05:59:00;0;0;0
74436;PMS7003;62868;52.360;30.424;2023-03-03T06:04:02;0.3;0;0
74436;PMS7003;62868;52.360;30.424;2023-03-03T06:09:00;1;0.3;0
74436;PMS7003;62868;52.360;30.424;2023-03-03T06:13:46;0;0;0
74436;PMS7003;62868;52.360;30.424;2023-03-03T06:19:14;1;0.5;0.3
74436;PMS7003;62868;52.360;30.424;2023-03-03T06:23:32;0.7;0;0
74436;PMS7003;62868;52.360;30.424;2023-03-03T06:28:22;0.7;0.3;0
74436;PMS7003;62868;52.360;30.424;2023-03-03T06:33:56;0.7;0.7;0.3
74436;PMS7003;62868;52.360;30.424;2023-03-03T06:38:42;0.8;0;0
74436;PMS7003;62868;52.360;30.424;2023-03-03T06:44:12;0.3;0;0
74436;PMS7003;62868;52.360;30.424;2023-03-03T06:48:31;0.7;0.7;0.3
74436;PMS7003;62868;52.360;30.424;2023-03-03T06:53:32;1;0.3;0
74436;PMS7003;62868;52.360;30.424;2023-03-03T06:58:59;1.3;0.3;0
74436;PMS7003;62868;52.360;30.424;2023-03-03T07:03:44;0.3;0;0
74436;PMS7003;62868;52.360;30.424;2023-03-03T07:09:14;0.7;0.3;0
74436;PMS7003;62868;52.360;30.424;2023-03-03T07:13:43;0.5;0;0
74436;PMS7003;62868;52.360;30.424;2023-03-03T07:18:25;0.7;0.3;0.3
74436;PMS7003;62868;52.360;30.424;2023-03-03T07:24:17;1.3;0.7;0
74436;PMS7003;62868;52.360;30.424;2023-03-03T07:28:47;1.7;1;0.3
74436;PMS7003;62868;52.360;30.424;2023-03-03T07:34:16;0.5;0;0
74436;PMS7003;62868;52.360;30.424;2023-03-03T07:38:44;1;0.7;0.7
74436;PMS7003;62868;52.360;30.424;2023-03-03T07:43:28;1.3;0.3;0.3
74436;PMS7003;62868;52.360;30.424;2023-03-03T07:48:49;1.3;0.7;0.3
74436;PMS7003;62868;52.360;30.424;2023-03-03T07:53:33;0.3;0.3;0.3
74436;PMS7003;62868;52.360;30.424;2023-03-03T07:58:46;1.3;0.3;0
74436;PMS7003;62868;52.360;30.424;2023-03-03T08:03:32;3;1.7;1
74436;PMS7003;62868;52.360;30.424;2023-03-03T08:08:32;1.3;1;0.7
74436;PMS7003;62868;52.360;30.424;2023-03-03T08:13:58;1;0.8;0.5
74436;PMS7003;62868;52.360;30.424;2023-03-03T08:18:34;1.7;1.3;0.7
74436;PMS7003;62868;52.360;30.424;2023-03-03T08:24:10;2.3;2;1
74436;PMS7003;62868;52.360;30.424;2023-03-03T08:28:53;1.3;1;0.7
74436;PMS7003;62868;52.360;30.424;2023-03-03T08:33:31;1.3;1;0.8
74436;PMS7003;62868;52.360;30.424;2023-03-03T08:38:44;1.3;1;1
74436;PMS7003;62868;52.360;30.424;2023-03-03T08:43:22;1.3;1.3;0.3
74436;PMS7003;62868;52.360;30.424;2023-03-03T08:49:10;1.3;1;1
74436;PMS7003;62868;52.360;30.424;2023-03-03T08:53:33;0.8;0.5;0.3
74436;PMS7003;62868;52.360;30.424;2023-03-03T08:58:22;1.3;0.7;0.3
74436;PMS7003;62868;52.360;30.424;2023-03-03T09:03:44;0.7;0;0
74436;PMS7003;62868;52.360;30.424;2023-03-03T09:08:22;0.3;0.3;0
74436;PMS7003;62868;52.360;30.424;2023-03-03T09:14:13;0.7;0.3;0
74436;PMS7003;62868;52.360;30.424;2023-03-03T09:18:24;0;0;0
74436;PMS7003;62868;52.360;30.424;2023-03-03T09:23:24;1;0;0
74436;PMS7003;62868;52.360;30.424;2023-03-03T09:29:07;0.5;0.5;0.3
74436;PMS7003;62868;52.360;30.424;2023-03-03T09:33:46;0.7;0.3;0
74436;PMS7003;62868;52.360;30.424;2023-03-03T09:39:15;0.3;0;0
74436;PMS7003;62868;52.360;30.424;2023-03-03T09:43:44;0.7;0;0
74436;PMS7003;62868;52.360;30.424;2023-03-03T09:48:26;0.5;0.3;0
74436;PMS7003;62868;52.360;30.424;2023-03-03T09:54:13;0;0;0
74436;PMS7003;62868;52.360;30.424;2023-03-03T09:58:44;0;0;0
74436;PMS7003;62868;52.360;30.424;2023-03-03T10:04:33;0.3;0;0
74436;PMS7003;62868;52.360;30.424;2023-03-03T10:08:27;0;0;0
74436;PMS7003;62868;52.360;30.424;2023-03-03T10:13:25;0;0;0
74436;PMS7003;62868;52.360;30.424;2023-03-03T10:19:14;1;0.3;0
74436;PMS7003;62868;52.360;30.424;2023-03-03T10:23:23;0.7;0.7;0.3
74436;PMS7003;62868;52.360;30.424;2023-03-03T10:29:14;2.5;1;0.8
74436;PMS7003;62868;52.360;30.424;2023-03-03T10:33:43;4;2.7;2
74436;PMS7003;62868;52.360;30.424;2023-03-03T10:38:25;2;1;0.3
74436;PMS7003;62868;52.360;30.424;2023-03-03T10:43:54;1;1;0.7
74436;PMS7003;62868;52.360;30.424;2023-03-03T10:49:00;1.5;1.3;0.8
74436;PMS7003;62868;52.360;30.424;2023-03-03T10:54:17;1.3;1.3;1
74436;PMS7003;62868;52.360;30.424;2023-03-03T10:58:34;0.3;0.3;0
74436;PMS7003;62868;52.360;30.424;2023-03-03T11:03:50;0.5;0.3;0
74436;PMS7003;62868;52.360;30.424;2023-03-03T11:09:00;0.3;0;0
74436;PMS7003;62868;52.360;30.424;2023-03-03T11:13:32;0;0;0
74436;PMS7003;62868;52.360;30.424;2023-03-03T11:19:47;0.3;0;0
74436;PMS7003;62868;52.360;30.424;2023-03-03T11:24:17;0.3;0;0
74436;PMS7003;62868;52.360;30.424;2023-03-03T11:28:36;1.7;1;1
74436;PMS7003;62868;52.360;30.424;2023-03-03T11:34:00;1.7;1;0.7
74436;PMS7003;62868;52.360;30.424;2023-03-03T11:38:29;0.3;0;0
74436;PMS7003;62868;52.360;30.424;2023-03-03T11:44:16;1;0.5;0.3
74436;PMS7003;62868;52.360;30.424;2023-03-03T11:48:42;1.3;1;0.7
74436;PMS7003;62868;52.360;30.424;2023-03-03T11:53:33;1;1;0
74436;PMS7003;62868;52.360;30.424;2023-03-03T11:59:06;0.7;0;0
74436;PMS7003;62868;52.360;30.424;2023-03-03T12:03:24;0;0;0
74436;PMS7003;62868;52.360;30.424;2023-03-03T12:09:21;0.3;0.3;0
74436;PMS7003;62868;52.360;30.424;2023-03-03T12:14:04;0.7;0;0
74436;PMS7003;62868;52.360;30.424;2023-03-03T12:18:48;0.3;0;0
74436;PMS7003;62868;52.360;30.424;2023-03-03T12:24:17;0.8;0;0
74436;PMS7003;62868;52.360;30.424;2023-03-03T12:28:34;1.7;1;0.3
74436;PMS7003;62868;52.360;30.424;2023-03-03T12:34:16;0.3;0.3;0.3
74436;PMS7003;62868;52.360;30.424;2023-03-03T12:38:26;0.7;0.3;0
74436;PMS7003;62868;52.360;30.424;2023-03-03T12:44:01;2.3;1.3;0.8
74436;PMS7003;62868;52.360;30.424;2023-03-03T12:49:01;13.7;10.3;6
74436;PMS7003;62868;52.360;30.424;2023-03-03T12:53:39;11.7;10.3;6
74436;PMS7003;62868;52.360;30.424;2023-03-03T12:59:13;18.3;14.3;9.3
74436;PMS7003;62868;52.360;30.424;2023-03-03T13:03:48;5.3;4.7;3
74436;PMS7003;62868;52.360;30.424;2023-03-03T13:08:36;2.3;1.3;0.7
74436;PMS7003;62868;52.360;30.424;2023-03-03T13:14:04;8.3;6.7;4
74436;PMS7003;62868;52.360;30.424;2023-03-03T13:18:37;2.5;2;1.5
74436;PMS7003;62868;52.360;30.424;2023-03-03T13:24:15;0.7;0.7;0.3
74436;PMS7003;62868;52.360;30.424;2023-03-03T13:28:49;1.7;0.7;0
74436;PMS7003;62868;52.360;30.424;2023-03-03T13:33:24;0.3;0;0
74436;PMS7003;62868;52.360;30.424;2023-03-03T13:39:05;1.5;0.5;0.3
74436;PMS7003;62868;52.360;30.424;2023-03-03T13:43:23;2;0.7;0.3
74436;PMS7003;62868;52.360;30.424;2023-03-03T13:49:19;0.3;0.3;0
74436;PMS7003;62868;52.360;30.424;2023-03-03T13:53:49;0.7;0.7;0.7
74436;PMS7003;62868;52.360;30.424;2023-03-03T13:58:23;1.5;1.3;1
74436;PMS7003;62868;52.360;30.424;2023-03-03T14:04:04;1.3;0;0
74436;PMS7003;62868;52.360;30.424;2023-03-03T14:08:37;0;0;0
74436;PMS7003;62868;52.360;30.424;2023-03-03T14:14:17;0.7;0.3;0
74436;PMS7003;62868;52.360;30.424;2023-03-03T14:18:51;0.5;0.3;0
74436;PMS7003;62868;52.360;30.424;2023-03-03T14:24:00;0.7;0.3;0
74436;PMS7003;62868;52.360;30.424;2023-03-03T14:29:15;1.3;0.3;0.3
74436;PMS7003;62868;52.360;30.424;2023-03-03T14:33:33;0;0;0
74436;PMS7003;62868;52.360;30.424;2023-03-03T14:38:59;1;0.8;0.5
74436;PMS7003;62868;52.360;30.424;2023-03-03T14:44:01;0;0;0
74436;PMS7003;62868;52.360;30.424;2023-03-03T14:48:59;0;0;0
74436;PMS7003;62868;52.360;30.424;2023-03-03T14:54:18;0.3;0.3;0
74436;PMS7003;62868;52.360;30.424;2023-03-03T14:58:33;0.3;0.3;0
74436;PMS7003;62868;52.360;30.424;2023-03-03T15:03:47;0.7;0;0
74436;PMS7003;62868;52.360;30.424;2023-03-03T15:08:45;0.7;0.3;0
74436;PMS7003;62868;52.360;30.424;2023-03-03T15:13:47;0.5;0;0
74436;PMS7003;62868;52.360;30.424;2023-03-03T15:19:07;1;0.3;0
74436;PMS7003;62868;52.360;30.424;2023-03-03T15:23:39;0.7;0;0
74436;PMS7003;62868;52.360;30.424;2023-03-03T15:29:01;1.3;1;1
74436;PMS7003;62868;52.360;30.424;2023-03-03T15:33:24;0;0;0
74436;PMS7003;62868;52.360;30.424;2023-03-03T15:38:59;0.3;0;0
74436;PMS7003;62868;52.360;30.424;2023-03-03T15:44:14;1;0.3;0
74436;PMS7003;62868;52.360;30.424;2023-03-03T15:48:27;0.3;0;0
74436;PMS7003;62868;52.360;30.424;2023-03-03T15:54:00;0;0;0
74436;PMS7003;62868;52.360;30.424;2023-03-03T15:59:02;0.3;0;0
74436;PMS7003;62868;52.360;30.424;2023-03-03T16:04:01;0.3;0.3;0
74436;PMS7003;62868;52.360;30.424;2023-03-03T16:09:15;0.3;0;0
74436;PMS7003;62868;52.360;30.424;2023-03-03T16:13:29;0;0;0
74436;PMS7003;62868;52.360;30.424;2023-03-03T16:19:02;0.3;0.3;0
74436;PMS7003;62868;52.360;30.424;2023-03-03T16:23:45;0.3;0;0
74436;PMS7003;62868;52.360;30.424;2023-03-03T16:29:03;1;0;0
74436;PMS7003;62868;52.360;30.424;2023-03-03T16:34:13;0.5;0.3;0
74436;PMS7003;62868;52.360;30.424;2023-03-03T16:38:34;0.3;0;0
74436;PMS7003;62868;52.360;30.424;2023-03-03T16:44:14;0.3;0;0
74436;PMS7003;62868;52.360;30.424;2023-03-03T16:48:47;0.8;0.5;0.3
74436;PMS7003;62868;52.360;30.424;2023-03-03T16:54:00;0;0;0
74436;PMS7003;62868;52.360;30.424;2023-03-03T16:59:16;0.7;0.7;0
74436;PMS7003;62868;52.360;30.424;2023-03-03T17:03:27;0.3;0;0
74436;PMS7003;62868;52.360;30.424;2023-03-03T17:08:30;0.3;0;0
74436;PMS7003;62868;52.360;30.424;2023-03-03T17:13:46;0.3;0;0
74436;PMS7003;62868;52.360;30.424;2023-03-03T17:19:01;0;0;0
74436;PMS7003;62868;52.360;30.424;2023-03-03T17:24:15;0.7;0.3;0
74436;PMS7003;62868;52.360;30.424;2023-03-03T17:28:35;0.3;0;0
74436;PMS7003;62868;52.360;30.424;2023-03-03T17:34:06;0.3;0;0
74436;PMS7003;62868;52.360;30.424;2023-03-03T17:38:25;0.3;0.3;0
74436;PMS7003;62868;52.360;30.424;2023-03-03T17:44:00;0;0;0
74436;PMS7003;62868;52.360;30.424;2023-03-03T17:49:39;4.8;4.5;3.8
74436;PMS7003;62868;52.360;30.424;2023-03-03T17:53:41;0.3;0.3;0
74436;PMS7003;62868;52.360;30.424;2023-03-03T17:59:06;1;0.3;0
74436;PMS7003;62868;52.360;30.424;2023-03-03T18:03:51;0.3;0;0
74436;PMS7003;62868;52.360;30.424;2023-03-03T18:09:07;0.3;0;0
74436;PMS7003;62868;52.360;30.424;2023-03-03T18:14:17;0.3;0;0
74436;PMS7003;62868;52.360;30.424;2023-03-03T18:18:26;0.7;0.3;0
74436;PMS7003;62868;52.360;30.424;2023-03-03T18:24:25;0.3;0;0
74436;PMS7003;62868;52.360;30.424;2023-03-03T18:29:05;0;0;0
74436;PMS7003;62868;52.360;30.424;2023-03-03T18:34:00;0;0;0
74436;PMS7003;62868;52.360;30.424;2023-03-03T18:38:24;0;0;0
74436;PMS7003;62868;52.360;30.424;2023-03-03T18:43:38;0.3;0;0
74436;PMS7003;62868;52.360;30.424;2023-03-03T18:48:47;0.3;0;0
74436;PMS7003;62868;52.360;30.424;2023-03-03T18:53:59;0;0;0
74436;PMS7003;62868;52.360;30.424;2023-03-03T18:58:59;0;0;0
74436;PMS7003;62868;52.360;30.424;2023-03-03T19:03:24;0;0;0
74436;PMS7003;62868;52.360;30.424;2023-03-03T19:08:51;0;0;0
74436;PMS7003;62868;52.360;30.424;2023-03-03T19:13:37;0.3;0;0
74436;PMS7003;62868;52.360;30.424;2023-03-03T19:19:00;0;0;0
74436;PMS7003;62868;52.360;30.424;2023-03-03T19:24:29;0;0;0
74436;PMS7003;62868;52.360;30.424;2023-03-03T19:28:48;0.7;0;0
74436;PMS7003;62868;52.360;30.424;2023-03-03T19:33:49;0.3;0;0
74436;PMS7003;62868;52.360;30.424;2023-03-03T19:38:50;0.3;0;0
74436;PMS7003;62868;52.360;30.424;2023-03-03T19:44:02;2;0;0
74436;PMS7003;62868;52.360;30.424;2023-03-03T19:49:15;0;0;0
74436;PMS7003;62868;52.360;30.424;2023-03-03T19:54:16;0.3;0;0
74436;PMS7003;62868;52.360;30.424;2023-03-03T19:58:54;0;0;0
74436;PMS7003;62868;52.360;30.424;2023-03-03T20:03:59;0;0;0
74436;PMS7003;62868;52.360;30.424;2023-03-03T20:08:58;0;0;0
74436;PMS7003;62868;52.360;30.424;2023-03-03T20:14:19;0;0;0
74436;PMS7003;62868;52.360;30.424;2023-03-03T20:18:50;0;0;0
74436;PMS7003;62868;52.360;30.424;2023-03-03T20:23:36;0;0;0
74436;PMS7003;62868;52.360;30.424;2023-03-03T20:29:05;0;0;0
74436;PMS7003;62868;52.360;30.424;2023-03-03T20:33:47;0;0;0
74436;PMS7003;62868;52.360;30.424;2023-03-03T20:39:14;0.3;0;0
74436;PMS7003;62868;52.360;30.424;2023-03-03T20:43:50;0.3;0;0
74436;PMS7003;62868;52.360;30.424;2023-03-03T20:48:27;0;0;0
74436;PMS7003;62868;52.360;30.424;2023-03-03T20:53:23;0;0;0
74436;PMS7003;62868;52.360;30.424;2023-03-03T20:59:01;0;0;0
74436;PMS7003;62868;52.360;30.424;2023-03-03T21:04:17;0;0;0
74436;PMS7003;62868;52.360;30.424;2023-03-03T21:08:49;0;0;0
74436;PMS7003;62868;52.360;30.424;2023-03-03T21:13:25;0;0;0
74436;PMS7003;62868;52.360;30.424;2023-03-03T21:18:54;0;0;0
74436;PMS7003;62868;52.360;30.424;2023-03-03T21:23:59;0;0;0
74436;PMS7003;62868;52.360;30.424;2023-03-03T21:29:15;0;0;0
74436;PMS7003;62868;52.360;30.424;2023-03-03T21:33:48;0.7;0.3;0
74436;PMS7003;62868;52.360;30.424;2023-03-03T21:38:31;0.5;0;0
74436;PMS7003;62868;52.360;30.424;2023-03-03T21:43:45;0.3;0;0
74436;PMS7003;62868;52.360;30.424;2023-03-03T21:48:57;0.3;0;0
74436;PMS7003;62868;52.360;30.424;2023-03-03T21:54:13;0.7;0.3;0
74436;PMS7003;62868;52.360;30.424;2023-03-03T21:58:47;0.5;0;0
74436;PMS7003;62868;52.360;30.424;2023-03-03T22:03:35;0.7;0.3;0
74436;PMS7003;62868;52.360;30.424;2023-03-03T22:08:47;0;0;0
74436;PMS7003;62868;52.360;30.424;2023-03-03T22:13:59;0;0;0
74436;PMS7003;62868;52.360;30.424;2023-03-03T22:19:13;0.8;0;0
74436;PMS7003;62868;52.360;30.424;2023-03-03T22:23:35;1.5;0.5;0
74436;PMS7003;62868;52.360;30.424;2023-03-03T22:28:45;1.3;0;0
74436;PMS7003;62868;52.360;30.424;2023-03-03T22:33:23;0;0;0
74436;PMS7003;62868;52.360;30.424;2023-03-03T22:38:57;1;0;0
74436;PMS7003;62868;52.360;30.424;2023-03-03T22:44:13;0.3;0;0
74436;PMS7003;62868;52.360;30.424;2023-03-03T22:48:59;0;0;0
74436;PMS7003;62868;52.360;30.424;2023-03-03T22:53:23;1;0.7;0
74436;PMS7003;62868;52.360;30.424;2023-03-03T22:58:23;0.3;0.3;0
74436;PMS7003;62868;52.360;30.424;2023-03-03T23:04:13;0.3;0;0
74436;PMS7003;62868;52.360;30.424;2023-03-03T23:09:13;1;0.3;0
74436;PMS7003;62868;52.360;30.424;2023-03-03T23:13:59;0;0;0
74436;PMS7003;62868;52.360;30.424;2023-03-03T23:18:47;0;0;0
74436;PMS7003;62868;52.360;30.424;2023-03-03T23:23:23;0.5;0.3;0
74436;PMS7003;62868;52.360;30.424;2023-03-03T23:28:57;0;0;0
74436;PMS7003;62868;52.360;30.424;2023-03-03T23:34:11;0.7;0;0
74436;PMS7003;62868;52.360;30.424;2023-03-03T23:38:47;0.5;0;0
74436;PMS7003;62868;52.360;30.424;2023-03-03T23:43:31;0.3;0.3;0
74436;PMS7003;62868;52.360;30.424;2023-03-03T23:48:23;0.3;0.3;0
74436;PMS7003;62868;52.360;30.424;2023-03-03T23:53:55;1;0.3;0.3
74436;PMS7003;62868;52.360;30.424;2023-03-03T23:59:09;0.5;0;0
